Главная страница
METAR-TAF:

METAR-TAF

Аэропорты :

Dansville Municipal Airport

Dansville, Нью-Йорк, США

широта: 42-34-10N, долгота: 077-42-52W, высота над уровнем моря: 201 м

Текущие метеонаблюдения

Эта сводка был подготовлена 11 минут назад, в 19:54 UTC
Ветер 9 Узел от западно-северо-западный с порывами до 18 Узел
Температура 16°C
Влажность 72%
Давление 1010 hPa
Видимость: 16.1 км
Рассеянная облачность на высоте 2700 фута
Рассеянная облачность на высоте 3300 фута
Сплошная облачность на высоте 8500 фута

METAR: KDSV 151954Z AUTO 29009G18KT 10SM BKN027 BKN033 OVC085 16/11 A2982 RMK AO2 RAB01E13 SLP108 P0000 T01610111

Время: 16:05 (20:05 UTC)


TAF: отсутствует

Метеонаблюдения и прогнозы для более 4000 аэропортов (сводки METAR и TAF).

Имеющиеся станции представлены на карте желтыми и красными точками.

Чтобы увидеть название станции, наведите на нее мышь.

Затем щелкните, чтобы увидеть метеонаблюдения и метеопрогнозы.

Управление картой: чтобы увеличить масштаб, щелкните зеленые кнопки с черным крестиком; чтобы уменьшить масштаб, щелкните зеленую кнопку с тире; для просмотра соседних карт щелкайте зеленые стрелки.


METAR-TAF: